Petersburg, Missouri
Current Conditions -  °F | °C
As of 3:15 AM on Thursday 27 Nov 2014 (Local Time) from KVER Reporting Station
Overcast Overcast  
Wind Chill: 23°   Ceiling: 1400
Heat Index: 33°   Visibility: 10mi
Dew Point: 27°   Wind: 13mph
Humidity: 81%   Direction: 280°W
Pressure: 30.41"   Gusts: 18mph
Location:  39.0587°N, 92.8414°W
Report Text: KVER 270915Z AUTO 28011G16KT 10SM BKN014 OVC021 00/M03 A3041 RMK AO2 T00031026
Loading
Personal Weather Stations






























Interactive Weather Map New forecast layout! Learn more

10-Day Weather Forecast

Advertisements
Track Severe Weather on mobile